Time,TemperatureF,DewpointF,PressureIn,WindDirection,WindDirectionDegrees,WindSpeedMPH,WindSpeedGustMPH,Humidity,HourlyPrecipIn,Conditions,Clouds,dailyrainin,SolarRadiationWatts/m^2,SoftwareType,DateUTC
2013-08-06 00:01:00,67.0,43.0,-100.00,North,10,9.0,11.0,41,0.00,,,0.00,0.000000,,2013-08-06 06:01:00,
2013-08-06 00:32:00,66.0,45.0,-100.00,North,8,9.0,16.0,47,0.00,,,0.00,0.000000,,2013-08-06 06:32:00,
2013-08-06 01:32:00,61.0,44.0,-100.00,WSW,258,3.0,15.0,53,-99.99,,,0.00,0.000000,,2013-08-06 07:32:00,
2013-08-06 01:43:00,61.0,44.0,-100.00,WSW,258,3.0,15.0,53,-99.99,,,0.00,0.000000,,2013-08-06 07:43:00,
2013-08-06 01:53:00,61.0,44.0,-100.00,WSW,258,3.0,15.0,53,-99.99,,,0.00,0.000000,,2013-08-06 07:53:00,
2013-08-06 02:01:00,61.0,44.0,-100.00,WSW,258,3.0,15.0,53,-99.99,,,0.00,0.000000,,2013-08-06 08:01:00,
2013-08-06 02:33:00,61.0,44.0,-100.00,West,265,4.0,10.0,53,0.00,,,0.00,0.000000,,2013-08-06 08:33:00,
2013-08-06 02:43:00,61.0,44.0,-100.00,West,265,4.0,10.0,53,0.00,,,0.00,0.000000,,2013-08-06 08:43:00,
2013-08-06 02:52:00,61.0,44.0,-100.00,West,265,4.0,10.0,53,0.00,,,0.00,0.000000,,2013-08-06 08:52:00,
2013-08-06 03:33:00,58.0,41.0,-100.00,SW,221,3.0,8.0,54,0.00,,,0.00,0.000000,,2013-08-06 09:33:00,
2013-08-06 03:43:00,58.0,41.0,-100.00,SW,221,3.0,8.0,54,0.00,,,0.00,0.000000,,2013-08-06 09:43:00,
2013-08-06 03:52:00,58.0,41.0,-100.00,SW,221,3.0,8.0,54,0.00,,,0.00,0.000000,,2013-08-06 09:52:00,
2013-08-06 04:01:00,58.0,41.0,-100.00,SW,221,3.0,8.0,54,0.00,,,0.00,0.000000,,2013-08-06 10:01:00,
2013-08-06 04:32:00,58.0,43.0,-100.00,SW,228,2.0,11.0,58,0.00,,,0.00,0.000000,,2013-08-06 10:32:00,
2013-08-06 04:53:00,58.0,43.0,-100.00,SW,228,2.0,11.0,58,0.00,,,0.00,0.000000,,2013-08-06 10:53:00,
2013-08-06 05:01:00,58.0,43.0,-100.00,SW,228,2.0,11.0,58,0.00,,,0.00,0.000000,,2013-08-06 11:01:00,
2013-08-06 05:32:00,55.0,44.0,-100.00,WSW,238,5.0,9.0,66,0.00,,,0.00,0.000000,,2013-08-06 11:32:00,
2013-08-06 05:43:00,55.0,44.0,-100.00,WSW,238,5.0,9.0,66,0.00,,,0.00,0.000000,,2013-08-06 11:43:00,
2013-08-06 05:53:00,55.0,44.0,-100.00,WSW,238,5.0,9.0,66,0.00,,,0.00,0.000000,,2013-08-06 11:53:00,
2013-08-06 06:01:00,55.0,44.0,-100.00,WSW,238,5.0,9.0,66,0.00,,,0.00,0.000000,,2013-08-06 12:01:00,
2013-08-06 06:32:00,53.0,43.0,-100.00,SW,224,4.0,8.0,68,0.00,,,0.00,0.000000,,2013-08-06 12:32:00,
2013-08-06 06:43:00,53.0,43.0,-100.00,SW,224,4.0,8.0,68,0.00,,,0.00,0.000000,,2013-08-06 12:43:00,
2013-08-06 06:52:00,53.0,43.0,-100.00,SW,224,4.0,8.0,68,0.00,,,0.00,0.000000,,2013-08-06 12:52:00,
2013-08-06 07:01:00,53.0,43.0,-100.00,SW,224,4.0,8.0,68,0.00,,,0.00,0.000000,,2013-08-06 13:01:00,
2013-08-06 07:32:00,55.0,44.0,-100.00,WSW,253,3.0,8.0,67,0.00,,,0.00,23.000000,,2013-08-06 13:32:00,
2013-08-06 07:53:00,55.0,44.0,-100.00,WSW,253,3.0,8.0,67,0.00,,,0.00,23.000000,,2013-08-06 13:53:00,
2013-08-06 08:01:00,55.0,44.0,-100.00,WSW,253,3.0,8.0,67,0.00,,,0.00,23.000000,,2013-08-06 14:01:00,
2013-08-06 09:44:00,68.0,48.0,-100.00,East,95,4.0,5.0,48,-99.99,,,0.00,380.000000,,2013-08-06 15:44:00,
2013-08-06 09:52:00,68.0,48.0,-100.00,East,95,4.0,5.0,48,-99.99,,,0.00,380.000000,,2013-08-06 15:52:00,
2013-08-06 10:01:00,68.0,48.0,-100.00,East,95,4.0,5.0,48,-99.99,,,0.00,380.000000,,2013-08-06 16:01:00,
2013-08-06 10:32:00,69.0,47.0,-100.00,East,81,6.0,8.0,45,0.00,,,0.00,545.000000,,2013-08-06 16:32:00,
2013-08-06 10:43:00,69.0,47.0,-100.00,East,81,6.0,8.0,45,0.00,,,0.00,545.000000,,2013-08-06 16:43:00,
2013-08-06 10:52:00,69.0,47.0,-100.00,East,81,6.0,8.0,45,0.00,,,0.00,545.000000,,2013-08-06 16:52:00,
2013-08-06 11:01:00,69.0,47.0,-100.00,East,81,6.0,8.0,45,0.00,,,0.00,545.000000,,2013-08-06 17:01:00,
2013-08-06 11:32:00,74.0,48.0,-100.00,ENE,61,5.0,12.0,40,0.00,,,0.00,791.000000,,2013-08-06 17:32:00,
2013-08-06 11:44:00,74.0,48.0,-100.00,ENE,61,5.0,12.0,40,0.00,,,0.00,791.000000,,2013-08-06 17:44:00,
2013-08-06 11:52:00,74.0,48.0,-100.00,ENE,61,5.0,12.0,40,0.00,,,0.00,791.000000,,2013-08-06 17:52:00,
2013-08-06 12:01:00,74.0,48.0,-100.00,ENE,61,5.0,12.0,40,0.00,,,0.00,791.000000,,2013-08-06 18:01:00,
2013-08-06 12:32:00,75.0,47.0,-100.00,ENE,67,6.0,11.0,37,0.00,,,0.00,798.000000,,2013-08-06 18:32:00,
2013-08-06 12:43:00,75.0,47.0,-100.00,ENE,67,6.0,11.0,37,0.00,,,0.00,798.000000,,2013-08-06 18:43:00,
2013-08-06 12:52:00,75.0,47.0,-100.00,ENE,67,6.0,11.0,37,0.00,,,0.00,798.000000,,2013-08-06 18:52:00,
2013-08-06 13:01:00,75.0,47.0,-100.00,ENE,67,6.0,11.0,37,0.00,,,0.00,798.000000,,2013-08-06 19:01:00,
2013-08-06 13:32:00,77.0,45.0,-100.00,NE,53,8.0,13.0,32,0.00,,,0.00,919.000000,,2013-08-06 19:32:00,
2013-08-06 13:42:00,77.0,45.0,-100.00,NE,53,8.0,13.0,32,0.00,,,0.00,919.000000,,2013-08-06 19:42:00,
2013-08-06 13:52:00,77.0,45.0,-100.00,NE,53,8.0,13.0,32,0.00,,,0.00,919.000000,,2013-08-06 19:52:00,
2013-08-06 14:01:00,77.0,45.0,-100.00,NE,53,8.0,13.0,32,0.00,,,0.00,919.000000,,2013-08-06 20:01:00,
2013-08-06 14:32:00,78.0,44.0,-100.00,East,86,7.0,17.0,30,0.00,,,0.00,911.000000,,2013-08-06 20:32:00,
2013-08-06 14:44:00,78.0,44.0,-100.00,East,86,7.0,17.0,30,0.00,,,0.00,911.000000,,2013-08-06 20:44:00,
2013-08-06 14:52:00,78.0,44.0,-100.00,East,86,7.0,17.0,30,0.00,,,0.00,911.000000,,2013-08-06 20:52:00,
2013-08-06 15:01:00,78.0,44.0,-100.00,East,86,7.0,17.0,30,0.00,,,0.00,911.000000,,2013-08-06 21:01:00,
2013-08-06 15:32:00,79.0,41.0,-100.00,East,100,8.0,14.0,26,0.00,,,0.00,778.000000,,2013-08-06 21:32:00,
2013-08-06 15:43:00,79.0,41.0,-100.00,East,100,8.0,14.0,26,0.00,,,0.00,778.000000,,2013-08-06 21:43:00,
2013-08-06 15:52:00,79.0,41.0,-100.00,East,100,8.0,14.0,26,0.00,,,0.00,778.000000,,2013-08-06 21:52:00,
2013-08-06 16:01:00,79.0,41.0,-100.00,East,100,8.0,14.0,26,0.00,,,0.00,778.000000,,2013-08-06 22:01:00,
2013-08-06 16:32:00,81.0,41.0,-100.00,East,94,11.0,16.0,24,0.00,,,0.00,789.000000,,2013-08-06 22:32:00,
2013-08-06 16:43:00,81.0,41.0,-100.00,East,94,11.0,16.0,24,0.00,,,0.00,789.000000,,2013-08-06 22:43:00,
2013-08-06 16:53:00,81.0,41.0,-100.00,East,94,11.0,16.0,24,0.00,,,0.00,789.000000,,2013-08-06 22:53:00,
2013-08-06 17:01:00,81.0,41.0,-100.00,East,94,11.0,16.0,24,0.00,,,0.00,789.000000,,2013-08-06 23:01:00,
2013-08-06 17:33:00,80.0,37.0,-100.00,East,87,10.0,19.0,21,0.00,,,0.00,656.000000,,2013-08-06 23:33:00,
2013-08-06 17:43:00,80.0,37.0,-100.00,East,87,10.0,19.0,21,0.00,,,0.00,656.000000,,2013-08-06 23:43:00,
2013-08-06 17:52:00,80.0,37.0,-100.00,East,87,10.0,19.0,21,0.00,,,0.00,656.000000,,2013-08-06 23:52:00,
2013-08-06 18:01:00,80.0,37.0,-100.00,East,87,10.0,19.0,21,0.00,,,0.00,656.000000,,2013-08-07 00:01:00,
2013-08-06 18:22:00,83.0,36.0,-100.00,NE,55,8.0,16.0,19,0.00,,,-99.99,426.000000,,2013-08-07 00:22:00,
2013-08-06 18:32:00,83.0,36.0,-100.00,NE,55,8.0,16.0,19,0.00,,,-99.99,426.000000,,2013-08-07 00:32:00,
2013-08-06 18:43:00,83.0,36.0,-100.00,NE,55,8.0,16.0,19,0.00,,,-99.99,426.000000,,2013-08-07 00:43:00,
2013-08-06 18:52:00,83.0,36.0,-100.00,NE,55,8.0,16.0,19,0.00,,,-99.99,426.000000,,2013-08-07 00:52:00,
2013-08-06 19:01:00,83.0,36.0,-100.00,NE,55,8.0,16.0,19,0.00,,,-99.99,426.000000,,2013-08-07 01:01:00,
2013-08-06 19:32:00,81.0,37.0,-100.00,NNW,348,10.0,22.0,21,0.00,,,0.00,139.000000,,2013-08-07 01:32:00,
2013-08-06 19:43:00,81.0,37.0,-100.00,NNW,348,10.0,22.0,21,0.00,,,0.00,139.000000,,2013-08-07 01:43:00,
2013-08-06 19:52:00,81.0,37.0,-100.00,NNW,348,10.0,22.0,21,0.00,,,0.00,139.000000,,2013-08-07 01:52:00,
2013-08-06 20:02:00,81.0,37.0,-100.00,NNW,348,10.0,22.0,21,0.00,,,0.00,139.000000,,2013-08-07 02:02:00,
2013-08-06 20:33:00,79.0,39.0,-100.00,North,11,6.0,17.0,24,0.00,,,0.00,207.000000,,2013-08-07 02:33:00,
2013-08-06 20:43:00,79.0,39.0,-100.00,North,11,6.0,17.0,24,0.00,,,0.00,207.000000,,2013-08-07 02:43:00,
2013-08-06 20:53:00,79.0,39.0,-100.00,North,11,6.0,17.0,24,0.00,,,0.00,207.000000,,2013-08-07 02:53:00,
2013-08-06 21:01:00,79.0,39.0,-100.00,North,11,6.0,17.0,24,0.00,,,0.00,207.000000,,2013-08-07 03:01:00,
2013-08-06 21:32:00,71.0,39.0,-100.00,NW,314,5.0,14.0,31,0.00,,,0.00,12.000000,,2013-08-07 03:32:00,
2013-08-06 21:43:00,71.0,39.0,-100.00,NW,314,5.0,14.0,31,0.00,,,0.00,12.000000,,2013-08-07 03:43:00,
2013-08-06 21:52:00,71.0,39.0,-100.00,NW,314,5.0,14.0,31,0.00,,,0.00,12.000000,,2013-08-07 03:52:00,
2013-08-06 22:01:00,71.0,39.0,-100.00,NW,314,5.0,14.0,31,0.00,,,0.00,12.000000,,2013-08-07 04:01:00,
2013-08-06 22:33:00,67.0,38.0,-100.00,West,263,3.0,7.0,35,0.00,,,0.00,0.000000,,2013-08-07 04:33:00,
2013-08-06 22:43:00,67.0,38.0,-100.00,West,263,3.0,7.0,35,0.00,,,0.00,0.000000,,2013-08-07 04:43:00,
2013-08-06 22:52:00,67.0,38.0,-100.00,West,263,3.0,7.0,35,0.00,,,0.00,0.000000,,2013-08-07 04:52:00,
2013-08-06 23:02:00,67.0,38.0,-100.00,West,263,3.0,7.0,35,0.00,,,0.00,0.000000,,2013-08-07 05:02:00,
2013-08-06 23:32:00,66.0,38.0,-100.00,WSW,254,2.0,7.0,35,0.00,,,0.00,0.000000,,2013-08-07 05:32:00,
2013-08-06 23:43:00,66.0,38.0,-100.00,WSW,254,2.0,7.0,35,0.00,,,0.00,0.000000,,2013-08-07 05:43:00,
2013-08-06 23:52:00,66.0,38.0,-100.00,WSW,254,2.0,7.0,35,0.00,,,0.00,0.000000,,2013-08-07 05:52:00,